createdAt,value
2018-03-15T00:00:05.878Z,62.70
2018-03-15T00:02:39.155Z,62.60
2018-03-15T00:05:09.147Z,62.70
2018-03-15T00:07:40.748Z,62.30
2018-03-15T00:10:11.049Z,62.10
2018-03-15T00:12:43.933Z,62.10
2018-03-15T00:15:13.413Z,62.00
2018-03-15T00:17:47.273Z,62.70
2018-03-15T00:20:16.949Z,62.10
2018-03-15T00:22:54.006Z,62.50
2018-03-15T00:25:23.732Z,61.60
2018-03-15T00:27:54.064Z,62.10
2018-03-15T00:30:23.647Z,61.80
2018-03-15T00:32:57.083Z,62.10
2018-03-15T00:35:27.749Z,62.10
2018-03-15T00:37:59.330Z,62.10
2018-03-15T00:40:29.380Z,61.90
2018-03-15T00:43:02.108Z,62.40
2018-03-15T00:45:31.691Z,62.10
2018-03-15T00:48:04.938Z,62.20
2018-03-15T00:50:34.607Z,61.20
2018-03-15T00:53:11.746Z,62.00
2018-03-15T00:55:42.376Z,61.70
2018-03-15T00:58:12.473Z,61.70
2018-03-15T01:00:42.418Z,61.50
2018-03-15T01:03:14.128Z,61.30
2018-03-15T01:05:44.039Z,61.30
2018-03-15T01:08:17.845Z,61.40
2018-03-15T01:10:48.007Z,61.30
2018-03-15T01:13:19.663Z,61.00
2018-03-15T01:15:50.434Z,60.80
2018-03-15T01:18:20.276Z,60.80
2018-03-15T01:20:50.165Z,60.70
2018-03-15T01:23:23.202Z,60.70
2018-03-15T01:25:53.819Z,60.90
2018-03-15T01:28:25.888Z,60.90
2018-03-15T01:30:55.792Z,60.50
2018-03-15T01:33:26.660Z,60.80
2018-03-15T01:35:58.484Z,60.40
2018-03-15T01:38:29.723Z,60.40
2018-03-15T01:40:59.798Z,61.00
2018-03-15T01:43:32.562Z,60.70
2018-03-15T01:46:03.398Z,60.50
2018-03-15T01:48:35.175Z,60.50
2018-03-15T01:51:05.354Z,60.50
2018-03-15T01:53:36.809Z,59.50
2018-03-15T01:56:07.764Z,59.30
2018-03-15T01:58:39.902Z,59.30
2018-03-15T02:01:09.719Z,59.20
2018-03-15T02:03:42.840Z,59.50
2018-03-15T02:06:12.526Z,59.60
2018-03-15T02:08:46.200Z,60.30
2018-03-15T02:11:16.604Z,60.30
2018-03-15T02:13:50.459Z,60.00
2018-03-15T02:16:20.283Z,59.90
2018-03-15T02:18:51.702Z,59.80
2018-03-15T02:21:21.381Z,60.00
2018-03-15T02:23:54.549Z,60.10
2018-03-15T02:26:24.870Z,59.80
2018-03-15T02:28:58.266Z,60.30
2018-03-15T02:31:28.293Z,60.20
2018-03-15T02:33:59.970Z,60.40
2018-03-15T02:36:30.419Z,59.80
2018-03-15T02:39:07.612Z,60.00
2018-03-15T02:41:37.673Z,60.00
2018-03-15T02:44:07.497Z,60.30
2018-03-15T02:46:37.306Z,60.70
2018-03-15T02:49:08.987Z,60.40
2018-03-15T02:51:38.855Z,60.00
2018-03-15T02:54:16.361Z,59.50
2018-03-15T02:56:45.853Z,59.60
2018-03-15T02:59:15.654Z,60.40
2018-03-15T03:01:45.489Z,59.90
2018-03-15T03:04:16.244Z,59.80
2018-03-15T03:06:46.232Z,59.80
2018-03-15T03:09:19.716Z,59.40
2018-03-15T03:11:49.375Z,59.60
2018-03-15T03:14:21.086Z,59.90
2018-03-15T03:16:51.942Z,60.20
2018-03-15T03:19:25.103Z,59.90
2018-03-15T03:21:54.515Z,59.90
2018-03-15T03:24:25.898Z,59.60
2018-03-15T03:26:55.238Z,59.00
2018-03-15T03:29:27.651Z,59.10
2018-03-15T03:31:57.168Z,59.10
2018-03-15T03:34:30.337Z,59.10
2018-03-15T03:37:00.256Z,58.50
2018-03-15T03:39:33.564Z,59.50
2018-03-15T03:42:03.708Z,58.90
2018-03-15T03:44:37.428Z,59.20
2018-03-15T03:47:06.581Z,59.10
2018-03-15T03:49:40.035Z,58.60
2018-03-15T03:52:10.798Z,58.60
2018-03-15T03:54:40.671Z,58.50
2018-03-15T03:57:10.960Z,58.60
2018-03-15T03:59:43.991Z,58.60
2018-03-15T04:02:14.338Z,58.40
2018-03-15T04:04:48.425Z,58.40
2018-03-15T04:07:18.921Z,58.30
2018-03-15T04:09:50.036Z,58.30
2018-03-15T04:12:19.322Z,58.20
2018-03-15T04:14:52.618Z,58.00
2018-03-15T04:17:22.212Z,58.20
2018-03-15T04:19:57.297Z,57.60
2018-03-15T04:22:27.173Z,57.60
2018-03-15T04:24:58.568Z,58.00
2018-03-15T04:27:30.125Z,57.50
2018-03-15T04:30:01.181Z,57.80
2018-03-15T04:32:30.683Z,57.50
2018-03-15T04:35:03.023Z,57.90
2018-03-15T04:37:32.435Z,58.30
2018-03-15T04:40:06.461Z,57.60
2018-03-15T04:42:37.190Z,57.90
2018-03-15T04:45:09.721Z,58.20
2018-03-15T04:47:39.359Z,58.20
2018-03-15T04:50:14.700Z,58.50
2018-03-15T04:52:45.013Z,57.80
2018-03-15T04:55:18.612Z,57.90
2018-03-15T04:57:48.307Z,58.30
2018-03-15T05:00:19.538Z,57.30
2018-03-15T05:02:49.369Z,58.30
2018-03-15T05:05:21.302Z,57.70
2018-03-15T05:07:51.080Z,58.70
2018-03-15T05:10:23.775Z,57.90
2018-03-15T05:12:54.826Z,57.90
2018-03-15T05:15:26.378Z,57.90
2018-03-15T05:17:56.275Z,58.10
2018-03-15T05:20:27.579Z,58.70
2018-03-15T05:22:57.582Z,58.60
2018-03-15T05:25:31.672Z,58.70
2018-03-15T05:28:02.154Z,58.90
2018-03-15T05:30:33.332Z,58.10
2018-03-15T05:33:03.338Z,58.30
2018-03-15T05:35:35.294Z,57.80
2018-03-15T05:38:05.046Z,58.30
2018-03-15T05:40:38.709Z,57.90
2018-03-15T05:43:09.656Z,58.30
2018-03-15T05:45:40.590Z,58.30
2018-03-15T05:48:10.503Z,58.40
2018-03-15T05:50:44.191Z,59.30
2018-03-15T05:53:14.873Z,58.90
2018-03-15T05:55:48.002Z,58.90
2018-03-15T05:58:18.877Z,59.20
2018-03-15T06:00:48.732Z,59.20
2018-03-15T06:03:18.518Z,58.20
2018-03-15T06:05:52.529Z,58.10
2018-03-15T06:08:22.448Z,58.10
2018-03-15T06:10:55.606Z,58.60
2018-03-15T06:13:26.328Z,58.30
2018-03-15T06:15:59.591Z,58.40
2018-03-15T06:18:29.431Z,58.60
2018-03-15T06:21:01.096Z,58.70
2018-03-15T06:23:30.906Z,59.20
2018-03-15T06:26:04.084Z,58.70
2018-03-15T06:28:34.154Z,58.10
2018-03-15T06:31:11.118Z,58.00
2018-03-15T06:33:41.027Z,58.90
2018-03-15T06:36:10.687Z,57.60
2018-03-15T06:38:41.231Z,57.80
2018-03-15T06:41:14.062Z,57.80
2018-03-15T06:43:44.530Z,57.30
2018-03-15T06:46:15.970Z,58.40
2018-03-15T06:48:47.579Z,57.60
2018-03-15T06:51:17.982Z,57.60
2018-03-15T06:53:47.500Z,58.10
2018-03-15T06:56:21.040Z,58.20
2018-03-15T06:58:50.604Z,57.80
2018-03-15T07:01:23.788Z,57.40
2018-03-15T07:03:54.327Z,57.60
2018-03-15T07:06:24.798Z,57.50
2018-03-15T07:08:54.996Z,57.20
2018-03-15T07:11:26.764Z,57.20
2018-03-15T07:13:56.417Z,57.90
2018-03-15T07:16:29.576Z,56.70
2018-03-15T07:19:00.077Z,57.10
2018-03-15T07:21:33.231Z,57.10
2018-03-15T07:24:02.728Z,56.70
2018-03-15T07:26:33.504Z,58.20
2018-03-15T07:29:02.771Z,56.30
2018-03-15T07:31:40.031Z,56.90
2018-03-15T07:34:10.429Z,55.50
2018-03-15T07:36:40.007Z,55.50
2018-03-15T07:39:09.526Z,56.30
2018-03-15T07:41:46.721Z,55.10
2018-03-15T07:44:16.097Z,54.90
2018-03-15T07:46:45.474Z,56.20
2018-03-15T07:49:15.113Z,55.00
2018-03-15T07:51:51.816Z,54.60
2018-03-15T07:54:22.158Z,54.90
2018-03-15T07:56:52.063Z,54.90
2018-03-15T07:59:22.479Z,53.80
2018-03-15T08:01:52.804Z,54.00
2018-03-15T08:04:22.641Z,54.00
2018-03-15T08:06:55.934Z,52.80
2018-03-15T08:09:25.209Z,54.00
2018-03-15T08:12:00.168Z,53.70
2018-03-15T08:14:30.351Z,53.20
2018-03-15T08:17:02.942Z,53.20
2018-03-15T08:19:32.734Z,53.70
2018-03-15T08:22:03.854Z,54.30
2018-03-15T08:24:33.413Z,53.90
2018-03-15T08:27:07.265Z,52.40
2018-03-15T08:29:36.803Z,52.30
2018-03-15T08:32:14.554Z,53.40
2018-03-15T08:34:44.002Z,53.40
2018-03-15T08:37:16.052Z,52.30
2018-03-15T08:39:45.653Z,52.30
2018-03-15T08:42:18.386Z,51.80
2018-03-15T08:44:54.193Z,51.20
2018-03-15T08:47:23.623Z,51.60
2018-03-15T08:49:53.825Z,51.10
2018-03-15T08:52:23.887Z,51.70
2018-03-15T08:54:53.287Z,51.60
2018-03-15T08:57:30.647Z,50.30
2018-03-15T09:00:01.184Z,51.00
2018-03-15T09:02:31.288Z,51.60
2018-03-15T09:05:01.089Z,49.70
2018-03-15T09:07:30.843Z,50.70
2018-03-15T09:10:00.497Z,50.50
2018-03-15T09:12:32.591Z,49.40
2018-03-15T09:15:02.389Z,49.20
2018-03-15T09:17:35.670Z,49.70
2018-03-15T09:20:05.930Z,49.90
2018-03-15T09:22:37.304Z,49.90
2018-03-15T09:25:06.857Z,49.90
2018-03-15T09:27:40.866Z,52.00
2018-03-15T09:30:11.852Z,51.20
2018-03-15T09:32:48.715Z,51.00
2018-03-15T09:35:19.428Z,50.50
2018-03-15T09:37:49.583Z,50.50
2018-03-15T09:40:20.127Z,49.40
2018-03-15T09:42:49.517Z,49.30
2018-03-15T09:45:19.892Z,50.00
2018-03-15T09:47:49.962Z,49.90
2018-03-15T09:50:19.572Z,47.40
2018-03-15T09:52:54.135Z,48.40
2018-03-15T09:55:24.571Z,47.70
2018-03-15T09:57:57.657Z,47.80
2018-03-15T10:00:28.259Z,50.50
2018-03-15T10:03:02.676Z,46.70
2018-03-15T10:05:33.304Z,47.70
2018-03-15T10:08:03.858Z,47.70
2018-03-15T10:10:33.221Z,47.70
2018-03-15T10:13:09.891Z,49.60
2018-03-15T10:15:39.655Z,49.00
2018-03-15T10:18:10.217Z,47.90
2018-03-15T10:20:39.718Z,47.90
2018-03-15T10:23:12.982Z,48.80
2018-03-15T10:25:42.355Z,48.80
2018-03-15T10:28:15.328Z,47.40
2018-03-15T10:30:44.987Z,48.20
2018-03-15T10:33:22.634Z,46.70
2018-03-15T10:35:54.739Z,45.50
2018-03-15T10:38:24.081Z,47.50
2018-03-15T10:40:59.825Z,46.20
2018-03-15T10:43:29.456Z,46.10
2018-03-15T10:45:59.608Z,46.10
2018-03-15T10:48:28.974Z,46.10
2018-03-15T10:50:58.525Z,46.30
2018-03-15T10:53:27.872Z,45.30
2018-03-15T10:55:57.201Z,46.50
2018-03-15T10:58:29.181Z,46.20
2018-03-15T11:01:02.606Z,46.30
2018-03-15T11:03:37.912Z,47.60
2018-03-15T11:06:10.865Z,47.60
2018-03-15T11:08:45.074Z,44.90
2018-03-15T11:11:15.326Z,45.60
2018-03-15T11:13:45.008Z,45.60
2018-03-15T11:16:15.444Z,46.40
2018-03-15T11:18:44.947Z,46.40
2018-03-15T11:21:15.024Z,47.00
2018-03-15T11:23:45.219Z,46.90
2018-03-15T11:26:14.795Z,45.10
2018-03-15T11:28:46.149Z,47.30
2018-03-15T11:31:17.867Z,46.50
2018-03-15T11:33:50.255Z,46.50
2018-03-15T11:36:20.396Z,46.20
2018-03-15T11:38:57.482Z,46.20
2018-03-15T11:41:27.016Z,46.40
2018-03-15T11:43:57.248Z,46.40
2018-03-15T11:46:27.039Z,46.40
2018-03-15T11:48:58.513Z,46.40
2018-03-15T11:51:27.959Z,46.80
2018-03-15T11:54:03.415Z,47.50
2018-03-15T11:56:32.766Z,50.20
2018-03-15T11:59:03.480Z,50.20
2018-03-15T12:01:33.149Z,50.10
2018-03-15T12:04:05.990Z,50.60
2018-03-15T12:06:35.691Z,50.50
2018-03-15T12:09:14.424Z,50.50
2018-03-15T12:11:45.234Z,53.10
2018-03-15T12:14:14.660Z,53.20
2018-03-15T12:16:49.067Z,50.70
2018-03-15T12:19:19.433Z,51.10
2018-03-15T12:21:49.000Z,51.10
2018-03-15T12:24:18.733Z,51.50
2018-03-15T12:26:48.420Z,52.70
2018-03-15T12:29:21.258Z,51.30
2018-03-15T12:31:51.196Z,51.40
2018-03-15T12:34:23.888Z,52.30
2018-03-15T12:36:54.171Z,52.50
2018-03-15T12:39:29.188Z,53.20
2018-03-15T12:41:59.330Z,53.20
2018-03-15T12:44:29.470Z,53.20
2018-03-15T12:47:00.162Z,52.80
2018-03-15T12:49:30.720Z,53.50
2018-03-15T12:52:20.488Z,53.50
2018-03-15T12:54:59.040Z,54.50
2018-03-15T12:57:33.260Z,54.50
2018-03-15T13:00:03.147Z,53.40
2018-03-15T13:02:36.790Z,54.30
2018-03-15T13:05:07.283Z,52.80
2018-03-15T13:07:36.616Z,52.40
2018-03-15T13:10:05.962Z,52.60
2018-03-15T13:12:40.262Z,52.00
2018-03-15T13:15:10.310Z,51.50
2018-03-15T13:17:42.619Z,51.50
2018-03-15T13:20:11.927Z,50.90
2018-03-15T13:22:44.436Z,51.30
2018-03-15T13:25:15.112Z,50.90
2018-03-15T13:27:46.528Z,50.50
2018-03-15T13:30:16.023Z,52.30
2018-03-15T13:32:50.503Z,52.30
2018-03-15T13:35:19.910Z,49.60
2018-03-15T13:37:53.286Z,50.60
2018-03-15T13:40:23.214Z,50.10
2018-03-15T13:42:56.196Z,50.00
2018-03-15T13:45:25.484Z,50.50
2018-03-15T13:48:03.388Z,51.10
2018-03-15T13:50:32.816Z,50.80
2018-03-15T13:53:02.639Z,52.00
2018-03-15T13:55:33.102Z,52.40
2018-03-15T13:58:04.613Z,53.30
2018-03-15T14:00:34.370Z,53.40
2018-03-15T14:03:12.044Z,51.20
2018-03-15T14:05:42.119Z,53.30
2018-03-15T14:08:12.969Z,53.30
2018-03-15T14:10:42.707Z,52.90
2018-03-15T14:13:15.313Z,53.10
2018-03-15T14:15:44.617Z,52.90
2018-03-15T14:18:15.919Z,54.00
2018-03-15T14:20:46.193Z,54.90
2018-03-15T14:23:18.937Z,54.90
2018-03-15T14:25:48.627Z,53.50
2018-03-15T14:28:21.553Z,52.20
2018-03-15T14:30:50.845Z,52.90
2018-03-15T14:33:22.495Z,53.00
2018-03-15T14:35:52.599Z,53.50
2018-03-15T14:38:25.360Z,53.60
2018-03-15T14:40:54.772Z,53.70
2018-03-15T14:43:27.988Z,54.00
2018-03-15T14:45:57.785Z,54.10
2018-03-15T14:48:28.698Z,52.90
2018-03-15T14:50:58.818Z,53.30
2018-03-15T14:53:31.484Z,52.50
2018-03-15T14:56:00.914Z,52.50
2018-03-15T14:58:34.417Z,53.20
2018-03-15T15:01:04.064Z,52.60
2018-03-15T15:03:37.142Z,55.50
2018-03-15T15:06:06.784Z,55.70
2018-03-15T15:08:39.417Z,55.10
2018-03-15T15:11:08.655Z,55.40
2018-03-15T15:13:45.574Z,57.20
2018-03-15T15:16:14.975Z,56.50
2018-03-15T15:18:44.944Z,56.20
2018-03-15T15:21:14.832Z,56.70
2018-03-15T15:23:47.544Z,57.70
2018-03-15T15:26:16.946Z,57.90
2018-03-15T15:28:49.337Z,58.00
2018-03-15T15:31:18.695Z,57.20
2018-03-15T15:33:53.694Z,57.60
2018-03-15T15:36:23.082Z,57.40
2018-03-15T15:38:56.534Z,56.50
2018-03-15T15:41:26.278Z,56.70
2018-03-15T15:44:00.037Z,57.70
2018-03-15T15:46:29.355Z,57.70
2018-03-15T15:49:02.194Z,56.20
2018-03-15T15:51:31.548Z,58.30
2018-03-15T15:54:04.694Z,58.40
2018-03-15T15:56:34.346Z,58.70
2018-03-15T15:59:12.158Z,61.50
2018-03-15T16:01:42.257Z,64.50
2018-03-15T16:04:15.700Z,64.50
2018-03-15T16:06:44.992Z,59.10
2018-03-15T16:09:17.160Z,57.50
2018-03-15T16:11:46.628Z,57.50
2018-03-15T16:14:19.913Z,59.30
2018-03-15T16:16:49.627Z,61.00
2018-03-15T16:19:22.512Z,62.30
2018-03-15T16:21:51.735Z,59.60
2018-03-15T16:24:23.628Z,61.70
2018-03-15T16:26:52.989Z,64.50
2018-03-15T16:29:26.519Z,65.40
2018-03-15T16:31:55.995Z,66.30
2018-03-15T16:34:28.344Z,64.70
2018-03-15T16:36:57.584Z,65.60
2018-03-15T16:39:30.743Z,65.60
2018-03-15T16:42:00.104Z,68.00
2018-03-15T16:44:31.164Z,69.50
2018-03-15T16:47:00.879Z,70.00
2018-03-15T16:49:33.120Z,70.50
2018-03-15T16:52:02.499Z,69.80
2018-03-15T16:54:36.551Z,70.20
2018-03-15T16:57:05.883Z,69.10
2018-03-15T16:59:38.479Z,71.20
2018-03-15T17:02:07.957Z,72.10
2018-03-15T17:04:41.849Z,73.70
2018-03-15T17:07:11.114Z,73.70
2018-03-15T17:09:44.279Z,73.40
2018-03-15T17:12:13.450Z,74.40
2018-03-15T17:14:51.544Z,74.90
2018-03-15T17:17:21.579Z,74.80
2018-03-15T17:19:50.877Z,74.80
2018-03-15T17:22:20.234Z,75.60
2018-03-15T17:24:56.920Z,73.70
2018-03-15T17:27:26.160Z,74.40
2018-03-15T17:29:57.376Z,74.60
2018-03-15T17:32:27.948Z,74.20
2018-03-15T17:35:00.680Z,74.10
2018-03-15T17:37:30.999Z,74.00
2018-03-15T17:40:03.286Z,73.90
2018-03-15T17:42:33.623Z,75.30
2018-03-15T17:45:06.073Z,75.20
2018-03-15T17:47:35.472Z,74.40
2018-03-15T17:50:11.496Z,75.30
2018-03-15T17:52:42.400Z,75.30
2018-03-15T17:57:47.463Z,76.90
2018-03-15T18:00:16.730Z,76.70
2018-03-15T18:02:45.970Z,76.70
2018-03-15T18:05:23.839Z,76.80
2018-03-15T18:07:53.066Z,76.40
2018-03-15T18:10:22.226Z,77.00
2018-03-15T18:12:52.901Z,75.80
2018-03-15T18:15:23.539Z,75.80
2018-03-15T18:17:52.728Z,75.20
2018-03-15T18:20:25.354Z,75.70
2018-03-15T18:22:54.610Z,76.60
2018-03-15T18:25:27.299Z,77.10
2018-03-15T18:27:57.492Z,77.00
2018-03-15T18:30:28.948Z,77.10
2018-03-15T18:32:58.254Z,76.80
2018-03-15T18:35:36.390Z,76.40
2018-03-15T18:38:05.753Z,77.30
2018-03-15T18:40:35.024Z,77.90
2018-03-15T18:43:04.854Z,76.80
2018-03-15T18:45:35.966Z,77.70
2018-03-15T18:48:05.991Z,77.10
2018-03-15T18:50:39.368Z,77.20
2018-03-15T18:53:09.280Z,77.90
2018-03-15T18:55:42.954Z,78.60
2018-03-15T18:58:12.830Z,78.60
2018-03-15T19:00:45.426Z,78.20
2018-03-15T19:03:15.129Z,78.20
2018-03-15T19:05:48.156Z,77.30
2018-03-15T19:08:18.228Z,78.30
2018-03-15T19:10:51.860Z,78.30
2018-03-15T19:13:22.389Z,78.30
2018-03-15T19:15:53.794Z,78.00
2018-03-15T19:18:23.499Z,78.60
2018-03-15T19:20:57.021Z,77.70
2018-03-15T19:23:27.744Z,76.70
2018-03-15T19:26:05.635Z,76.70
2018-03-15T19:28:35.059Z,77.90
2018-03-15T19:31:04.691Z,77.70
2018-03-15T19:33:35.174Z,78.80
2018-03-15T19:36:05.649Z,78.80
2018-03-15T19:38:35.273Z,76.80
2018-03-15T19:41:08.300Z,78.50
2018-03-15T19:43:39.648Z,78.90
2018-03-15T19:46:12.841Z,78.80
2018-03-15T19:48:42.193Z,78.70
2018-03-15T19:51:14.258Z,78.20
2018-03-15T19:53:45.084Z,77.60
2018-03-15T19:56:16.709Z,78.60
2018-03-15T19:58:46.333Z,78.60
2018-03-15T20:01:18.504Z,77.60
2018-03-15T20:03:49.071Z,78.10
2018-03-15T20:06:23.081Z,78.10
2018-03-15T20:08:52.642Z,78.20
2018-03-15T20:11:22.761Z,77.60
2018-03-15T20:13:53.548Z,79.30
2018-03-15T20:16:24.767Z,79.00
2018-03-15T20:18:59.364Z,79.20
2018-03-15T20:21:28.960Z,79.20
2018-03-15T20:25:01.125Z,79.20
2018-03-15T20:27:35.457Z,79.70
2018-03-15T20:30:06.051Z,78.50
2018-03-15T20:32:39.714Z,79.00
2018-03-15T20:35:09.374Z,78.30
2018-03-15T20:37:38.888Z,79.10
2018-03-15T20:42:16.892Z,79.20
2018-03-15T20:44:46.908Z,79.10
2018-03-15T20:49:22.869Z,79.10
2018-03-15T20:51:52.225Z,79.20
2018-03-15T20:54:23.636Z,79.80
2018-03-15T20:56:53.048Z,79.90
2018-03-15T20:59:22.548Z,79.20
2018-03-15T21:01:52.222Z,79.50
2018-03-15T21:04:21.743Z,78.70
2018-03-15T21:06:51.041Z,78.00
2018-03-15T21:09:20.708Z,79.10
2018-03-15T21:11:51.907Z,79.00
2018-03-15T21:14:23.153Z,79.40
2018-03-15T21:17:00.655Z,79.40
2018-03-15T21:19:31.162Z,78.70
2018-03-15T21:22:00.716Z,78.70
2018-03-15T21:24:31.335Z,78.50
2018-03-15T21:27:00.649Z,78.50
2018-03-15T21:29:30.402Z,77.70
2018-03-15T21:32:04.033Z,77.40
2018-03-15T21:34:34.209Z,79.20
2018-03-15T21:37:07.148Z,79.10
2018-03-15T21:39:36.420Z,80.10
2018-03-15T21:42:13.595Z,78.10
2018-03-15T21:44:42.876Z,78.10
2018-03-15T21:47:16.073Z,79.10
2018-03-15T21:49:45.367Z,78.90
2018-03-15T21:52:17.506Z,79.00
2018-03-15T21:54:47.111Z,78.50
2018-03-15T21:57:18.140Z,79.00
2018-03-15T21:59:47.645Z,79.00
2018-03-15T22:02:21.243Z,78.30
2018-03-15T22:04:51.339Z,78.20
2018-03-15T22:07:24.909Z,78.40
2018-03-15T22:09:54.596Z,78.30
2018-03-15T22:12:25.192Z,78.00
2018-03-15T22:14:55.298Z,78.00
2018-03-15T22:17:26.083Z,78.00
2018-03-15T22:19:55.329Z,78.60
2018-03-15T22:22:32.374Z,78.00
2018-03-15T22:25:02.605Z,78.00
2018-03-15T22:27:33.334Z,78.90
2018-03-15T22:30:03.016Z,78.30
2018-03-15T22:32:34.609Z,78.70
2018-03-15T22:35:05.445Z,77.90
2018-03-15T22:37:37.690Z,78.10
2018-03-15T22:40:08.330Z,78.20
2018-03-15T22:42:40.200Z,78.20
2018-03-15T22:45:09.508Z,79.10
2018-03-15T22:47:41.409Z,78.10
2018-03-15T22:50:10.790Z,75.70
2018-03-15T22:52:43.881Z,76.00
2018-03-15T22:55:14.407Z,77.10
2018-03-15T22:57:47.582Z,76.90
2018-03-15T23:00:18.768Z,76.20
2018-03-15T23:02:51.782Z,76.00
2018-03-15T23:05:21.095Z,76.00
2018-03-15T23:07:55.745Z,75.70
2018-03-15T23:10:26.576Z,74.40
2018-03-15T23:12:56.005Z,74.30
2018-03-15T23:15:26.270Z,75.60
2018-03-15T23:18:04.112Z,75.60
2018-03-15T23:20:34.456Z,76.00
2018-03-15T23:23:05.848Z,76.00
2018-03-15T23:25:35.220Z,74.50
2018-03-15T23:28:13.309Z,74.30
2018-03-15T23:30:42.763Z,76.30
2018-03-15T23:33:15.720Z,75.60
2018-03-15T23:35:45.200Z,76.10
2018-03-15T23:38:16.292Z,77.00
2018-03-15T23:40:45.624Z,75.80
2018-03-15T23:43:18.691Z,75.60
2018-03-15T23:45:48.364Z,77.00
2018-03-15T23:48:25.113Z,76.20
2018-03-15T23:50:54.414Z,76.20
2018-03-15T23:53:24.644Z,77.10
2018-03-15T23:55:54.169Z,77.20
2018-03-15T23:58:26.908Z,76.00
